createdAt,value
2018-12-31T00:02:06.137Z,8.60
2018-12-31T00:04:32.676Z,8.70
2018-12-31T00:06:59.120Z,8.70
2018-12-31T00:09:25.587Z,8.60
2018-12-31T00:11:52.631Z,8.60
2018-12-31T00:14:19.934Z,8.70
2018-12-31T00:16:46.435Z,8.60
2018-12-31T00:19:13.155Z,8.70
2018-12-31T00:21:39.543Z,8.70
2018-12-31T00:26:33.391Z,8.70
2018-12-31T00:33:53.822Z,8.70
2018-12-31T00:36:20.534Z,8.70
2018-12-31T00:38:47.130Z,8.70
2018-12-31T00:43:40.911Z,8.70
2018-12-31T00:48:34.068Z,8.80
2018-12-31T00:53:27.777Z,8.80
2018-12-31T00:55:54.349Z,8.80
2018-12-31T00:58:21.596Z,8.80
2018-12-31T01:00:48.305Z,8.80
2018-12-31T01:05:41.565Z,8.80
2018-12-31T01:10:34.705Z,8.80
2018-12-31T01:13:01.133Z,8.80
2018-12-31T01:15:27.504Z,8.80
2018-12-31T01:17:54.211Z,8.80
2018-12-31T01:20:20.731Z,8.80
2018-12-31T01:25:14.276Z,8.80
2018-12-31T01:30:09.421Z,8.80
2018-12-31T01:35:02.981Z,8.80
2018-12-31T01:37:29.363Z,8.80
2018-12-31T01:39:55.771Z,8.80
2018-12-31T01:42:22.156Z,8.80
2018-12-31T01:47:17.982Z,8.80
2018-12-31T01:49:44.803Z,8.70
2018-12-31T01:52:11.613Z,8.80
2018-12-31T01:57:05.264Z,8.80
2018-12-31T02:01:59.280Z,8.80
2018-12-31T02:06:52.815Z,8.80
2018-12-31T02:09:19.233Z,8.80
2018-12-31T02:11:45.697Z,8.80
2018-12-31T02:14:12.215Z,8.80
2018-12-31T02:16:39.604Z,8.70
2018-12-31T02:19:05.915Z,8.70
2018-12-31T02:23:59.606Z,8.70
2018-12-31T02:31:19.674Z,8.80
2018-12-31T02:36:13.078Z,8.80
2018-12-31T02:38:39.894Z,8.90
2018-12-31T02:41:06.579Z,8.90
2018-12-31T02:53:21.770Z,8.90
2018-12-31T02:55:48.304Z,8.90
2018-12-31T02:58:14.725Z,8.90
2018-12-31T03:00:41.541Z,9.00
2018-12-31T03:03:08.009Z,9.00
2018-12-31T03:08:01.254Z,9.00
2018-12-31T03:10:28.083Z,9.00
2018-12-31T03:12:54.549Z,9.00
2018-12-31T03:17:48.521Z,9.00
2018-12-31T03:22:42.196Z,9.00
2018-12-31T03:25:08.899Z,9.00
2018-12-31T03:27:35.821Z,9.00
2018-12-31T03:30:02.533Z,9.00
2018-12-31T03:32:28.883Z,9.00
2018-12-31T03:39:50.044Z,9.00
2018-12-31T03:47:12.387Z,9.10
2018-12-31T03:52:06.118Z,9.10
2018-12-31T03:54:32.580Z,9.10
2018-12-31T03:57:00.779Z,9.10
2018-12-31T03:59:27.164Z,9.10
2018-12-31T04:01:53.981Z,9.10
2018-12-31T04:04:20.329Z,9.10
2018-12-31T04:06:47.863Z,9.10
2018-12-31T04:09:14.223Z,9.10
2018-12-31T04:11:40.649Z,9.10
2018-12-31T04:16:33.901Z,9.20
2018-12-31T04:19:00.259Z,9.10
2018-12-31T04:23:53.532Z,9.10
2018-12-31T04:28:48.076Z,9.10
2018-12-31T04:33:41.282Z,9.20
2018-12-31T04:41:01.307Z,9.20
2018-12-31T04:48:21.176Z,9.20
2018-12-31T05:00:36.445Z,9.10
2018-12-31T05:03:02.948Z,9.20
2018-12-31T05:10:24.846Z,9.20
2018-12-31T05:12:51.223Z,9.20
2018-12-31T05:15:17.831Z,9.20
2018-12-31T05:20:11.066Z,9.20
2018-12-31T05:25:06.095Z,9.20
2018-12-31T05:30:00.646Z,9.20
2018-12-31T05:32:27.067Z,9.20
2018-12-31T05:39:46.980Z,9.20
2018-12-31T05:42:13.373Z,9.20
2018-12-31T05:44:39.782Z,9.20
2018-12-31T05:51:59.689Z,9.20
2018-12-31T05:54:26.124Z,9.20
2018-12-31T05:56:52.574Z,9.20
2018-12-31T05:59:18.988Z,9.20
2018-12-31T06:11:32.835Z,9.20
2018-12-31T06:16:26.129Z,9.20
2018-12-31T06:21:19.450Z,9.30
2018-12-31T06:23:45.819Z,9.30
2018-12-31T06:26:12.219Z,9.30
2018-12-31T06:28:38.579Z,9.30
2018-12-31T06:33:32.240Z,9.30
2018-12-31T06:35:58.589Z,9.40
2018-12-31T06:40:51.745Z,9.30
2018-12-31T06:43:18.148Z,9.30
2018-12-31T06:45:44.648Z,9.30
2018-12-31T06:48:11.053Z,9.30
2018-12-31T06:53:05.091Z,9.30
2018-12-31T06:55:31.498Z,9.30
2018-12-31T06:57:57.852Z,9.30
2018-12-31T07:00:24.367Z,9.30
2018-12-31T07:05:17.509Z,9.20
2018-12-31T07:07:45.422Z,9.20
2018-12-31T07:12:39.378Z,9.20
2018-12-31T07:15:05.897Z,9.20
2018-12-31T07:17:32.323Z,9.20
2018-12-31T07:19:58.682Z,9.20
2018-12-31T07:22:25.111Z,9.30
2018-12-31T07:27:18.279Z,9.30
2018-12-31T07:29:44.692Z,9.20
2018-12-31T07:39:31.640Z,9.30
2018-12-31T07:46:51.658Z,9.30
2018-12-31T07:54:11.601Z,9.30
2018-12-31T07:59:04.874Z,9.30
2018-12-31T08:03:57.982Z,9.30
2018-12-31T08:08:51.437Z,9.30
2018-12-31T08:11:17.854Z,9.30
2018-12-31T08:16:10.933Z,9.30
2018-12-31T08:18:37.374Z,9.30
2018-12-31T08:21:03.774Z,9.30
2018-12-31T08:23:30.202Z,9.30
2018-12-31T08:28:23.322Z,9.30
2018-12-31T08:33:16.506Z,9.30
2018-12-31T08:35:42.855Z,9.30
2018-12-31T08:40:36.011Z,9.30
2018-12-31T08:43:02.527Z,9.30
2018-12-31T08:45:29.236Z,9.30
2018-12-31T08:50:22.502Z,9.30
2018-12-31T08:52:48.941Z,9.30
2018-12-31T08:55:16.115Z,9.30
2018-12-31T08:57:42.661Z,9.30
2018-12-31T09:00:09.183Z,9.30
2018-12-31T09:02:36.725Z,9.40
2018-12-31T09:05:04.465Z,9.40
2018-12-31T09:07:31.146Z,9.40
2018-12-31T09:09:58.121Z,9.50
2018-12-31T09:12:24.618Z,9.50
2018-12-31T09:14:51.040Z,9.50
2018-12-31T09:17:17.994Z,9.50
2018-12-31T09:22:12.155Z,9.50
2018-12-31T09:24:44.643Z,9.50
2018-12-31T09:27:07.051Z,9.50
2018-12-31T09:29:33.861Z,9.50
2018-12-31T09:32:00.415Z,9.60
2018-12-31T09:34:27.285Z,9.60
2018-12-31T09:36:54.308Z,9.60
2018-12-31T09:41:49.352Z,9.60
2018-12-31T09:44:15.898Z,9.50
2018-12-31T09:46:42.904Z,9.60
2018-12-31T09:51:36.708Z,9.60
2018-12-31T09:54:03.315Z,9.60
2018-12-31T09:56:29.865Z,9.60
2018-12-31T09:58:56.932Z,9.60
2018-12-31T10:01:23.374Z,9.60
2018-12-31T10:03:51.092Z,9.60
2018-12-31T10:08:49.355Z,9.60
2018-12-31T10:11:15.116Z,9.70
2018-12-31T10:16:09.599Z,9.70
2018-12-31T10:18:36.683Z,9.70
2018-12-31T10:21:03.147Z,9.80
2018-12-31T10:23:29.560Z,9.80
2018-12-31T10:30:51.388Z,9.80
2018-12-31T10:40:38.084Z,9.80
2018-12-31T10:43:04.561Z,9.80
2018-12-31T10:45:31.003Z,9.90
2018-12-31T10:50:24.265Z,9.90
2018-12-31T10:52:50.846Z,9.90
2018-12-31T10:55:17.244Z,9.90
2018-12-31T10:57:43.632Z,9.90
2018-12-31T11:02:36.945Z,9.90
2018-12-31T11:05:04.628Z,9.90
2018-12-31T11:07:30.995Z,9.90
2018-12-31T11:14:51.062Z,9.90
2018-12-31T11:17:17.452Z,9.90
2018-12-31T11:19:43.987Z,9.90
2018-12-31T11:22:10.401Z,9.90
2018-12-31T11:27:04.329Z,10.00
2018-12-31T11:29:30.737Z,10.00
2018-12-31T11:31:57.329Z,10.00
2018-12-31T11:34:23.696Z,10.00
2018-12-31T11:41:43.655Z,10.00
2018-12-31T11:44:10.036Z,10.00
2018-12-31T11:46:36.458Z,10.00
2018-12-31T11:51:29.800Z,10.10
2018-12-31T11:53:56.318Z,10.00
2018-12-31T11:58:49.591Z,10.00
2018-12-31T12:01:16.457Z,10.00
2018-12-31T12:06:09.714Z,10.00
2018-12-31T12:08:36.205Z,10.00
2018-12-31T12:11:02.849Z,9.90
2018-12-31T12:13:29.231Z,10.00
2018-12-31T12:15:57.363Z,9.90
2018-12-31T12:18:23.937Z,10.00
2018-12-31T12:20:50.463Z,10.00
2018-12-31T12:23:18.379Z,10.00
2018-12-31T12:28:11.521Z,10.00
2018-12-31T12:30:37.947Z,9.90
2018-12-31T12:33:04.440Z,9.90
2018-12-31T12:35:30.901Z,9.90
2018-12-31T12:37:57.505Z,10.00
2018-12-31T12:40:23.906Z,10.00
2018-12-31T12:42:50.308Z,10.00
2018-12-31T12:45:16.724Z,10.00
2018-12-31T12:55:03.494Z,10.00
2018-12-31T12:59:56.786Z,10.10
2018-12-31T13:04:53.774Z,10.10
2018-12-31T13:07:20.142Z,10.10
2018-12-31T13:14:41.292Z,10.10
2018-12-31T13:17:07.837Z,10.10
2018-12-31T13:19:34.199Z,10.10
2018-12-31T13:22:00.723Z,10.10
2018-12-31T13:26:54.039Z,10.10
2018-12-31T13:29:20.680Z,10.00
2018-12-31T13:31:47.478Z,10.00
2018-12-31T13:34:14.004Z,10.10
2018-12-31T13:39:09.114Z,10.10
2018-12-31T13:41:35.814Z,10.10
2018-12-31T13:44:02.237Z,10.10
2018-12-31T13:46:28.605Z,10.10
2018-12-31T13:48:55.069Z,10.10
2018-12-31T13:51:22.109Z,10.10
2018-12-31T13:56:15.736Z,10.10
2018-12-31T13:58:42.198Z,10.10
2018-12-31T14:01:08.789Z,10.10
2018-12-31T14:03:35.339Z,10.10
2018-12-31T14:08:28.919Z,10.10
2018-12-31T14:10:55.463Z,10.10
2018-12-31T14:13:21.812Z,10.00
2018-12-31T14:15:48.223Z,10.00
2018-12-31T14:18:14.622Z,10.00
2018-12-31T14:23:08.207Z,9.90
2018-12-31T14:25:34.580Z,9.90
2018-12-31T14:28:01.044Z,10.00
2018-12-31T14:30:27.651Z,10.00
2018-12-31T14:32:54.110Z,9.90
2018-12-31T14:35:20.634Z,9.90
2018-12-31T14:40:14.166Z,9.80
2018-12-31T14:42:40.589Z,9.80
2018-12-31T14:45:07.196Z,9.90
2018-12-31T14:47:33.589Z,9.80
2018-12-31T14:49:59.997Z,9.80
2018-12-31T14:52:26.640Z,9.80
2018-12-31T14:54:53.129Z,9.80
2018-12-31T14:59:46.315Z,9.80
2018-12-31T15:02:12.687Z,9.80
2018-12-31T15:04:56.324Z,9.80
2018-12-31T15:07:23.938Z,9.80
2018-12-31T15:12:17.106Z,9.80
2018-12-31T15:14:43.467Z,9.80
2018-12-31T15:17:09.975Z,9.80
2018-12-31T15:19:36.455Z,9.80
2018-12-31T15:24:29.831Z,9.80
2018-12-31T15:26:56.298Z,9.70
2018-12-31T15:41:36.765Z,9.60
2018-12-31T15:44:03.221Z,9.60
2018-12-31T15:46:29.608Z,9.60
2018-12-31T15:48:56.299Z,9.60
2018-12-31T15:51:22.801Z,9.60
2018-12-31T15:53:49.236Z,9.50
2018-12-31T15:56:15.614Z,9.60
2018-12-31T15:58:43.391Z,9.60
2018-12-31T16:03:37.037Z,9.60
2018-12-31T16:06:03.619Z,9.50
2018-12-31T16:08:30.034Z,9.50
2018-12-31T16:10:56.398Z,9.50
2018-12-31T16:15:49.561Z,9.50
2018-12-31T16:18:16.064Z,9.50
2018-12-31T16:20:42.426Z,9.50
2018-12-31T16:23:08.868Z,9.50
2018-12-31T16:25:35.328Z,9.50
2018-12-31T16:28:01.720Z,9.60
2018-12-31T16:32:55.057Z,9.50
2018-12-31T16:35:21.423Z,9.50
2018-12-31T16:37:47.890Z,9.50
2018-12-31T16:42:41.899Z,9.60
2018-12-31T16:45:08.510Z,9.50
2018-12-31T16:47:34.896Z,9.50
2018-12-31T16:52:28.306Z,9.50
2018-12-31T16:54:54.736Z,9.50
2018-12-31T16:57:21.199Z,9.50
2018-12-31T16:59:47.572Z,9.50
2018-12-31T17:02:13.987Z,9.50
2018-12-31T17:04:40.596Z,9.50
2018-12-31T17:07:06.957Z,9.50
2018-12-31T17:12:00.074Z,9.50
2018-12-31T17:14:26.486Z,9.50
2018-12-31T17:16:52.844Z,9.50
2018-12-31T17:19:19.247Z,9.50
2018-12-31T17:21:45.611Z,9.50
2018-12-31T17:24:12.025Z,9.50
2018-12-31T17:26:38.419Z,9.50
2018-12-31T17:29:04.996Z,9.50
2018-12-31T17:31:31.363Z,9.40
2018-12-31T17:33:57.790Z,9.40
2018-12-31T17:36:25.578Z,9.30
2018-12-31T17:38:52.014Z,9.30
2018-12-31T17:41:18.392Z,9.10
2018-12-31T17:43:44.862Z,9.20
2018-12-31T17:46:11.288Z,9.20
2018-12-31T17:48:37.662Z,9.10
2018-12-31T17:53:31.497Z,9.10
2018-12-31T17:55:57.852Z,9.10
2018-12-31T17:58:24.253Z,9.10
2018-12-31T18:00:50.679Z,9.00
2018-12-31T18:05:43.824Z,9.00
2018-12-31T18:08:10.203Z,9.00
2018-12-31T18:13:03.451Z,8.90
2018-12-31T18:15:29.981Z,8.90
2018-12-31T18:17:56.357Z,8.80
2018-12-31T18:20:22.835Z,8.90
2018-12-31T18:22:49.198Z,9.00
2018-12-31T18:25:16.867Z,9.00
2018-12-31T18:27:43.204Z,9.00
2018-12-31T18:30:09.609Z,9.00
2018-12-31T18:35:03.294Z,9.00
2018-12-31T18:37:29.644Z,9.00
2018-12-31T18:39:58.120Z,9.00
2018-12-31T18:42:24.346Z,9.10
2018-12-31T18:44:50.765Z,9.10
2018-12-31T18:47:17.127Z,9.00
2018-12-31T18:49:43.555Z,9.10
2018-12-31T18:52:10.319Z,9.10
2018-12-31T18:57:03.486Z,9.00
2018-12-31T18:59:29.918Z,9.00
2018-12-31T19:01:56.473Z,9.00
2018-12-31T19:04:22.889Z,9.00
2018-12-31T19:09:17.234Z,9.00
2018-12-31T19:14:10.372Z,9.00
2018-12-31T19:16:36.919Z,9.00
2018-12-31T19:19:03.406Z,9.00
2018-12-31T19:21:29.823Z,9.00
2018-12-31T19:23:56.320Z,9.10
2018-12-31T19:26:22.747Z,9.10
2018-12-31T19:28:49.200Z,9.00
2018-12-31T19:31:15.595Z,9.00
2018-12-31T19:33:41.962Z,9.00
2018-12-31T19:36:08.360Z,8.90
2018-12-31T19:41:01.852Z,9.00
2018-12-31T19:43:28.293Z,8.90
2018-12-31T19:45:54.694Z,9.00
2018-12-31T19:48:21.059Z,9.00
2018-12-31T19:50:47.493Z,9.00
2018-12-31T19:53:14.299Z,9.00
2018-12-31T19:55:40.892Z,9.00
2018-12-31T19:58:07.349Z,9.00
2018-12-31T20:00:33.799Z,9.00
2018-12-31T20:03:00.139Z,9.00
2018-12-31T20:05:26.574Z,8.90
2018-12-31T20:07:52.940Z,8.90
2018-12-31T20:10:20.023Z,8.90
2018-12-31T20:12:48.302Z,8.90
2018-12-31T20:15:14.693Z,8.80
2018-12-31T20:17:41.159Z,8.80
2018-12-31T20:22:37.110Z,8.80
2018-12-31T20:25:17.285Z,8.80
2018-12-31T20:27:43.780Z,8.80
2018-12-31T20:30:10.148Z,8.80
2018-12-31T20:32:36.575Z,8.80
2018-12-31T20:35:03.138Z,8.80
2018-12-31T20:37:29.951Z,8.80
2018-12-31T20:42:23.203Z,8.80
2018-12-31T20:44:50.061Z,8.80
2018-12-31T20:47:16.448Z,8.80
2018-12-31T20:49:44.510Z,8.80
2018-12-31T20:52:12.104Z,8.80
2018-12-31T20:54:38.612Z,8.80
2018-12-31T20:57:05.012Z,9.00
2018-12-31T20:59:31.363Z,9.00
2018-12-31T21:01:57.868Z,9.00
2018-12-31T21:04:25.947Z,9.00
2018-12-31T21:06:53.582Z,9.00
2018-12-31T21:09:20.396Z,9.00
2018-12-31T21:11:46.804Z,9.00
2018-12-31T21:14:13.174Z,9.00
2018-12-31T21:16:39.621Z,9.00
2018-12-31T21:19:06.007Z,9.00
2018-12-31T21:21:32.500Z,9.00
2018-12-31T21:23:58.901Z,9.00
2018-12-31T21:28:51.966Z,8.90
2018-12-31T21:31:18.482Z,8.90
2018-12-31T21:33:45.793Z,8.90
2018-12-31T21:36:12.184Z,8.80
2018-12-31T21:41:05.558Z,8.80
2018-12-31T21:43:31.954Z,9.70
2018-12-31T21:45:58.301Z,8.80
2018-12-31T21:48:24.700Z,8.70
2018-12-31T21:50:51.134Z,8.70
2018-12-31T21:53:17.562Z,8.70
2018-12-31T21:55:43.919Z,8.70
2018-12-31T21:58:10.329Z,8.70
2018-12-31T22:00:36.735Z,8.70
2018-12-31T22:03:03.266Z,8.70
2018-12-31T22:05:29.631Z,8.70
2018-12-31T22:07:56.157Z,8.80
2018-12-31T22:10:22.527Z,8.70
2018-12-31T22:12:49.227Z,8.70
2018-12-31T22:15:15.623Z,8.70
2018-12-31T22:17:42.071Z,8.70
2018-12-31T22:20:08.666Z,8.70
2018-12-31T22:22:35.053Z,8.80
2018-12-31T22:25:01.490Z,8.80
2018-12-31T22:29:55.017Z,8.70
2018-12-31T22:34:48.154Z,8.80
2018-12-31T22:37:14.674Z,8.70
2018-12-31T22:39:41.113Z,8.70
2018-12-31T22:42:07.491Z,8.70
2018-12-31T22:44:34.147Z,8.60
2018-12-31T22:47:00.557Z,8.70
2018-12-31T22:49:26.928Z,8.70
2018-12-31T22:51:53.378Z,8.60
2018-12-31T22:54:19.798Z,8.60
2018-12-31T22:56:46.206Z,8.60
2018-12-31T22:59:13.063Z,8.70
2018-12-31T23:01:39.413Z,8.70
2018-12-31T23:08:59.355Z,8.60
2018-12-31T23:11:25.724Z,8.60
2018-12-31T23:13:52.640Z,8.60
2018-12-31T23:18:45.934Z,8.60
2018-12-31T23:21:12.403Z,8.60
2018-12-31T23:23:38.812Z,8.60
2018-12-31T23:26:05.444Z,8.60
2018-12-31T23:30:58.713Z,8.60
2018-12-31T23:33:25.121Z,8.60
2018-12-31T23:38:18.464Z,8.60
2018-12-31T23:40:45.507Z,8.60
2018-12-31T23:43:11.907Z,8.60
2018-12-31T23:45:38.554Z,8.50
2018-12-31T23:48:04.957Z,8.50
2018-12-31T23:55:24.996Z,8.50
2018-12-31T23:57:51.387Z,8.50
